sensor_id;sensor_type;location;lat;lon;timestamp;temperature;humidity
17178;DHT22;8704;52.006;4.374;2023-05-29T00:01:05;12.80;99.90
17178;DHT22;8704;52.006;4.374;2023-05-29T00:03:34;12.80;99.90
17178;DHT22;8704;52.006;4.374;2023-05-29T00:06:03;12.80;99.90
17178;DHT22;8704;52.006;4.374;2023-05-29T00:08:32;12.80;99.90
17178;DHT22;8704;52.006;4.374;2023-05-29T00:11:00;12.70;99.90
17178;DHT22;8704;52.006;4.374;2023-05-29T00:13:30;12.70;99.90
17178;DHT22;8704;52.006;4.374;2023-05-29T00:15:58;12.70;99.90
17178;DHT22;8704;52.006;4.374;2023-05-29T00:18:27;12.60;99.90
17178;DHT22;8704;52.006;4.374;2023-05-29T00:20:55;12.60;99.90
17178;DHT22;8704;52.006;4.374;2023-05-29T00:23:23;12.60;99.90
17178;DHT22;8704;52.006;4.374;2023-05-29T00:25:51;12.60;99.90
17178;DHT22;8704;52.006;4.374;2023-05-29T00:28:19;12.60;99.90
17178;DHT22;8704;52.006;4.374;2023-05-29T00:30:49;12.50;99.90
17178;DHT22;8704;52.006;4.374;2023-05-29T00:33:17;12.50;99.90
17178;DHT22;8704;52.006;4.374;2023-05-29T00:35:45;12.50;99.90
17178;DHT22;8704;52.006;4.374;2023-05-29T00:38:13;12.40;99.90
17178;DHT22;8704;52.006;4.374;2023-05-29T00:40:41;12.40;99.90
17178;DHT22;8704;52.006;4.374;2023-05-29T00:43:09;12.30;99.90
17178;DHT22;8704;52.006;4.374;2023-05-29T00:45:37;12.30;99.90
17178;DHT22;8704;52.006;4.374;2023-05-29T00:48:07;12.20;99.90
17178;DHT22;8704;52.006;4.374;2023-05-29T00:50:36;12.20;99.90
17178;DHT22;8704;52.006;4.374;2023-05-29T00:53:04;12.10;99.90
17178;DHT22;8704;52.006;4.374;2023-05-29T00:55:34;12.20;99.90
17178;DHT22;8704;52.006;4.374;2023-05-29T00:58:02;12.10;99.90
17178;DHT22;8704;52.006;4.374;2023-05-29T01:00:30;12.10;99.90
17178;DHT22;8704;52.006;4.374;2023-05-29T01:03:00;12.10;99.90
17178;DHT22;8704;52.006;4.374;2023-05-29T01:05:33;12.00;99.90
17178;DHT22;8704;52.006;4.374;2023-05-29T01:08:02;12.00;99.90
17178;DHT22;8704;52.006;4.374;2023-05-29T01:10:30;12.00;99.90
17178;DHT22;8704;52.006;4.374;2023-05-29T01:13:03;11.90;99.90
17178;DHT22;8704;52.006;4.374;2023-05-29T01:15:37;12.00;99.90
17178;DHT22;8704;52.006;4.374;2023-05-29T01:18:22;12.00;99.90
17178;DHT22;8704;52.006;4.374;2023-05-29T01:20:55;12.00;99.90
17178;DHT22;8704;52.006;4.374;2023-05-29T01:23:52;11.90;99.90
17178;DHT22;8704;52.006;4.374;2023-05-29T01:29:18;11.90;99.90
17178;DHT22;8704;52.006;4.374;2023-05-29T01:31:47;11.80;99.90
17178;DHT22;8704;52.006;4.374;2023-05-29T01:34:16;11.80;99.90
17178;DHT22;8704;52.006;4.374;2023-05-29T01:36:44;11.70;99.90
17178;DHT22;8704;52.006;4.374;2023-05-29T01:39:13;11.70;99.90
17178;DHT22;8704;52.006;4.374;2023-05-29T01:41:42;11.70;99.90
17178;DHT22;8704;52.006;4.374;2023-05-29T01:44:12;11.70;99.90
17178;DHT22;8704;52.006;4.374;2023-05-29T01:46:43;11.60;99.90
17178;DHT22;8704;52.006;4.374;2023-05-29T01:49:12;11.50;99.90
17178;DHT22;8704;52.006;4.374;2023-05-29T01:51:41;11.60;99.90
17178;DHT22;8704;52.006;4.374;2023-05-29T01:54:09;11.50;99.90
17178;DHT22;8704;52.006;4.374;2023-05-29T01:56:38;11.50;99.90
17178;DHT22;8704;52.006;4.374;2023-05-29T01:59:07;11.50;99.90
17178;DHT22;8704;52.006;4.374;2023-05-29T02:01:38;11.50;99.90
17178;DHT22;8704;52.006;4.374;2023-05-29T02:04:08;11.40;99.90
17178;DHT22;8704;52.006;4.374;2023-05-29T02:06:36;11.40;99.90
17178;DHT22;8704;52.006;4.374;2023-05-29T02:09:05;11.40;99.90
17178;DHT22;8704;52.006;4.374;2023-05-29T02:11:33;11.40;99.90
17178;DHT22;8704;52.006;4.374;2023-05-29T02:14:01;11.40;99.90
17178;DHT22;8704;52.006;4.374;2023-05-29T02:16:30;11.40;99.90
17178;DHT22;8704;52.006;4.374;2023-05-29T02:19:00;11.30;99.90
17178;DHT22;8704;52.006;4.374;2023-05-29T02:21:30;11.30;99.90
17178;DHT22;8704;52.006;4.374;2023-05-29T02:23:58;11.30;99.90
17178;DHT22;8704;52.006;4.374;2023-05-29T02:26:26;11.20;99.90
17178;DHT22;8704;52.006;4.374;2023-05-29T02:28:54;11.20;99.90
17178;DHT22;8704;52.006;4.374;2023-05-29T02:31:22;11.20;99.90
17178;DHT22;8704;52.006;4.374;2023-05-29T02:33:50;11.10;99.90
17178;DHT22;8704;52.006;4.374;2023-05-29T02:36:18;11.00;99.90
17178;DHT22;8704;52.006;4.374;2023-05-29T02:38:48;11.10;99.90
17178;DHT22;8704;52.006;4.374;2023-05-29T02:41:16;11.10;99.90
17178;DHT22;8704;52.006;4.374;2023-05-29T02:43:44;11.10;99.90
17178;DHT22;8704;52.006;4.374;2023-05-29T02:46:12;11.00;99.90
17178;DHT22;8704;52.006;4.374;2023-05-29T02:48:40;11.00;99.90
17178;DHT22;8704;52.006;4.374;2023-05-29T02:51:08;11.00;99.90
17178;DHT22;8704;52.006;4.374;2023-05-29T02:53:36;11.00;99.90
17178;DHT22;8704;52.006;4.374;2023-05-29T02:56:06;11.00;99.90
17178;DHT22;8704;52.006;4.374;2023-05-29T02:58:35;11.10;99.90
17178;DHT22;8704;52.006;4.374;2023-05-29T03:01:03;11.10;99.90
17178;DHT22;8704;52.006;4.374;2023-05-29T03:03:31;11.10;99.90
17178;DHT22;8704;52.006;4.374;2023-05-29T03:06:00;11.10;99.90
17178;DHT22;8704;52.006;4.374;2023-05-29T03:08:28;11.10;99.90
17178;DHT22;8704;52.006;4.374;2023-05-29T03:10:57;11.10;99.90
17178;DHT22;8704;52.006;4.374;2023-05-29T03:13:26;11.00;99.90
17178;DHT22;8704;52.006;4.374;2023-05-29T03:15:54;11.00;99.90
17178;DHT22;8704;52.006;4.374;2023-05-29T03:18:24;11.10;99.90
17178;DHT22;8704;52.006;4.374;2023-05-29T03:20:52;11.10;99.90
17178;DHT22;8704;52.006;4.374;2023-05-29T03:23:21;11.10;99.90
17178;DHT22;8704;52.006;4.374;2023-05-29T03:25:53;11.00;99.90
17178;DHT22;8704;52.006;4.374;2023-05-29T03:28:21;11.00;99.90
17178;DHT22;8704;52.006;4.374;2023-05-29T03:30:51;11.00;99.90
17178;DHT22;8704;52.006;4.374;2023-05-29T03:33:19;11.00;99.90
17178;DHT22;8704;52.006;4.374;2023-05-29T03:35:47;11.00;99.90
17178;DHT22;8704;52.006;4.374;2023-05-29T03:38:15;10.90;99.90
17178;DHT22;8704;52.006;4.374;2023-05-29T03:40:43;10.90;99.90
17178;DHT22;8704;52.006;4.374;2023-05-29T03:43:11;10.90;99.90
17178;DHT22;8704;52.006;4.374;2023-05-29T03:45:39;10.80;99.90
17178;DHT22;8704;52.006;4.374;2023-05-29T03:48:08;10.80;99.90
17178;DHT22;8704;52.006;4.374;2023-05-29T03:50:36;10.90;99.90
17178;DHT22;8704;52.006;4.374;2023-05-29T03:53:04;10.80;99.90
17178;DHT22;8704;52.006;4.374;2023-05-29T03:55:32;10.80;99.90
17178;DHT22;8704;52.006;4.374;2023-05-29T03:58:00;10.80;99.90
17178;DHT22;8704;52.006;4.374;2023-05-29T04:00:28;10.80;99.90
17178;DHT22;8704;52.006;4.374;2023-05-29T04:02:56;10.80;99.90
17178;DHT22;8704;52.006;4.374;2023-05-29T04:05:26;10.90;99.90
17178;DHT22;8704;52.006;4.374;2023-05-29T04:07:54;10.80;99.90
17178;DHT22;8704;52.006;4.374;2023-05-29T04:10:41;10.90;99.90
17178;DHT22;8704;52.006;4.374;2023-05-29T04:13:10;10.90;99.90
17178;DHT22;8704;52.006;4.374;2023-05-29T04:15:38;10.90;99.90
17178;DHT22;8704;52.006;4.374;2023-05-29T04:18:06;10.90;99.90
17178;DHT22;8704;52.006;4.374;2023-05-29T04:20:35;10.90;99.90
17178;DHT22;8704;52.006;4.374;2023-05-29T04:23:03;10.90;99.90
17178;DHT22;8704;52.006;4.374;2023-05-29T04:25:31;11.00;99.90
17178;DHT22;8704;52.006;4.374;2023-05-29T04:28:01;11.00;99.90
17178;DHT22;8704;52.006;4.374;2023-05-29T04:30:30;11.00;99.90
17178;DHT22;8704;52.006;4.374;2023-05-29T04:33:00;11.10;99.90
17178;DHT22;8704;52.006;4.374;2023-05-29T04:35:28;11.00;99.90
17178;DHT22;8704;52.006;4.374;2023-05-29T04:37:57;11.10;99.90
17178;DHT22;8704;52.006;4.374;2023-05-29T04:40:25;11.20;99.90
17178;DHT22;8704;52.006;4.374;2023-05-29T04:42:54;11.20;99.90
17178;DHT22;8704;52.006;4.374;2023-05-29T04:45:22;11.20;99.90
17178;DHT22;8704;52.006;4.374;2023-05-29T04:47:50;11.20;99.90
17178;DHT22;8704;52.006;4.374;2023-05-29T04:50:20;11.20;99.90
17178;DHT22;8704;52.006;4.374;2023-05-29T04:52:49;11.20;99.90
17178;DHT22;8704;52.006;4.374;2023-05-29T04:55:19;11.20;99.90
17178;DHT22;8704;52.006;4.374;2023-05-29T04:57:47;11.40;99.90
17178;DHT22;8704;52.006;4.374;2023-05-29T05:00:16;11.30;99.90
17178;DHT22;8704;52.006;4.374;2023-05-29T05:02:45;11.30;99.90
17178;DHT22;8704;52.006;4.374;2023-05-29T05:05:13;11.20;99.90
17178;DHT22;8704;52.006;4.374;2023-05-29T05:07:41;11.30;99.90
17178;DHT22;8704;52.006;4.374;2023-05-29T05:10:10;11.30;99.90
17178;DHT22;8704;52.006;4.374;2023-05-29T05:12:39;11.30;99.90
17178;DHT22;8704;52.006;4.374;2023-05-29T05:15:09;11.30;99.90
17178;DHT22;8704;52.006;4.374;2023-05-29T05:17:37;11.40;99.90
17178;DHT22;8704;52.006;4.374;2023-05-29T05:20:06;11.40;99.90
17178;DHT22;8704;52.006;4.374;2023-05-29T05:22:35;11.40;99.90
17178;DHT22;8704;52.006;4.374;2023-05-29T05:25:04;11.50;99.90
17178;DHT22;8704;52.006;4.374;2023-05-29T05:27:33;11.50;99.90
17178;DHT22;8704;52.006;4.374;2023-05-29T05:30:02;11.60;99.90
17178;DHT22;8704;52.006;4.374;2023-05-29T05:32:30;11.60;99.90
17178;DHT22;8704;52.006;4.374;2023-05-29T05:34:58;11.70;99.90
17178;DHT22;8704;52.006;4.374;2023-05-29T05:37:26;11.70;99.90
17178;DHT22;8704;52.006;4.374;2023-05-29T05:39:54;11.80;99.90
17178;DHT22;8704;52.006;4.374;2023-05-29T05:42:24;11.80;99.90
17178;DHT22;8704;52.006;4.374;2023-05-29T05:44:52;11.90;99.90
17178;DHT22;8704;52.006;4.374;2023-05-29T05:47:22;11.90;99.90
17178;DHT22;8704;52.006;4.374;2023-05-29T05:49:50;12.00;99.90
17178;DHT22;8704;52.006;4.374;2023-05-29T05:52:18;12.00;99.90
17178;DHT22;8704;52.006;4.374;2023-05-29T05:54:46;12.00;99.90
17178;DHT22;8704;52.006;4.374;2023-05-29T05:57:14;12.10;99.90
17178;DHT22;8704;52.006;4.374;2023-05-29T05:59:42;12.20;99.90
17178;DHT22;8704;52.006;4.374;2023-05-29T06:02:10;12.20;99.90
17178;DHT22;8704;52.006;4.374;2023-05-29T06:04:40;12.30;99.90
17178;DHT22;8704;52.006;4.374;2023-05-29T06:07:08;12.40;99.90
17178;DHT22;8704;52.006;4.374;2023-05-29T06:09:37;12.40;99.90
17178;DHT22;8704;52.006;4.374;2023-05-29T06:12:06;12.50;99.90
17178;DHT22;8704;52.006;4.374;2023-05-29T06:14:35;12.60;99.90
17178;DHT22;8704;52.006;4.374;2023-05-29T06:17:03;12.70;99.90
17178;DHT22;8704;52.006;4.374;2023-05-29T06:19:31;12.60;99.90
17178;DHT22;8704;52.006;4.374;2023-05-29T06:22:00;12.60;99.90
17178;DHT22;8704;52.006;4.374;2023-05-29T06:24:28;12.70;99.90
17178;DHT22;8704;52.006;4.374;2023-05-29T06:26:56;12.80;99.90
17178;DHT22;8704;52.006;4.374;2023-05-29T06:29:25;12.90;99.90
17178;DHT22;8704;52.006;4.374;2023-05-29T06:31:53;12.80;99.90
17178;DHT22;8704;52.006;4.374;2023-05-29T06:34:21;12.80;99.90
17178;DHT22;8704;52.006;4.374;2023-05-29T06:36:49;12.80;99.90
17178;DHT22;8704;52.006;4.374;2023-05-29T06:39:18;12.90;99.90
17178;DHT22;8704;52.006;4.374;2023-05-29T06:41:46;12.90;99.90
17178;DHT22;8704;52.006;4.374;2023-05-29T06:44:14;12.90;99.90
17178;DHT22;8704;52.006;4.374;2023-05-29T06:46:42;12.90;99.90
17178;DHT22;8704;52.006;4.374;2023-05-29T06:49:10;12.90;99.90
17178;DHT22;8704;52.006;4.374;2023-05-29T06:51:38;12.90;99.90
17178;DHT22;8704;52.006;4.374;2023-05-29T06:54:06;12.90;99.90
17178;DHT22;8704;52.006;4.374;2023-05-29T06:56:36;12.90;99.90
17178;DHT22;8704;52.006;4.374;2023-05-29T06:59:04;13.00;99.90
17178;DHT22;8704;52.006;4.374;2023-05-29T07:01:32;13.00;99.90
17178;DHT22;8704;52.006;4.374;2023-05-29T07:04:00;13.00;99.90
17178;DHT22;8704;52.006;4.374;2023-05-29T07:06:28;13.10;99.90
17178;DHT22;8704;52.006;4.374;2023-05-29T07:08:56;13.10;99.90
17178;DHT22;8704;52.006;4.374;2023-05-29T07:11:24;13.20;99.90
17178;DHT22;8704;52.006;4.374;2023-05-29T07:13:54;13.30;99.90
17178;DHT22;8704;52.006;4.374;2023-05-29T07:16:22;13.30;99.90
17178;DHT22;8704;52.006;4.374;2023-05-29T07:18:51;13.40;99.90
17178;DHT22;8704;52.006;4.374;2023-05-29T07:21:19;13.50;99.90
17178;DHT22;8704;52.006;4.374;2023-05-29T07:23:48;13.50;99.90
17178;DHT22;8704;52.006;4.374;2023-05-29T07:26:16;13.60;99.90
17178;DHT22;8704;52.006;4.374;2023-05-29T07:28:44;13.60;99.90
17178;DHT22;8704;52.006;4.374;2023-05-29T07:31:13;13.70;99.90
17178;DHT22;8704;52.006;4.374;2023-05-29T07:33:42;13.80;99.90
17178;DHT22;8704;52.006;4.374;2023-05-29T07:36:11;13.80;99.90
17178;DHT22;8704;52.006;4.374;2023-05-29T07:38:39;13.90;99.90
17178;DHT22;8704;52.006;4.374;2023-05-29T07:41:07;14.00;99.90
17178;DHT22;8704;52.006;4.374;2023-05-29T07:43:35;14.00;99.90
17178;DHT22;8704;52.006;4.374;2023-05-29T07:46:03;14.10;99.90
17178;DHT22;8704;52.006;4.374;2023-05-29T07:48:33;14.10;99.90
17178;DHT22;8704;52.006;4.374;2023-05-29T07:51:01;14.10;99.90
17178;DHT22;8704;52.006;4.374;2023-05-29T07:53:29;14.10;99.90
17178;DHT22;8704;52.006;4.374;2023-05-29T07:55:57;14.20;99.90
17178;DHT22;8704;52.006;4.374;2023-05-29T07:58:25;14.30;99.90
17178;DHT22;8704;52.006;4.374;2023-05-29T08:00:53;14.30;99.90
17178;DHT22;8704;52.006;4.374;2023-05-29T08:03:22;14.30;99.90
17178;DHT22;8704;52.006;4.374;2023-05-29T08:05:51;14.30;99.90
17178;DHT22;8704;52.006;4.374;2023-05-29T08:08:19;14.40;99.90
17178;DHT22;8704;52.006;4.374;2023-05-29T08:10:47;14.40;99.90
17178;DHT22;8704;52.006;4.374;2023-05-29T08:13:15;14.60;99.90
17178;DHT22;8704;52.006;4.374;2023-05-29T08:15:43;14.70;99.90
17178;DHT22;8704;52.006;4.374;2023-05-29T08:18:12;14.60;99.90
17178;DHT22;8704;52.006;4.374;2023-05-29T08:20:40;14.70;99.90
17178;DHT22;8704;52.006;4.374;2023-05-29T08:23:11;14.60;99.90
17178;DHT22;8704;52.006;4.374;2023-05-29T08:25:39;14.60;99.90
17178;DHT22;8704;52.006;4.374;2023-05-29T08:28:07;14.70;99.90
17178;DHT22;8704;52.006;4.374;2023-05-29T08:30:35;14.80;99.90
17178;DHT22;8704;52.006;4.374;2023-05-29T08:33:03;14.80;99.90
17178;DHT22;8704;52.006;4.374;2023-05-29T08:35:31;14.80;99.90
17178;DHT22;8704;52.006;4.374;2023-05-29T08:38:00;14.80;99.90
17178;DHT22;8704;52.006;4.374;2023-05-29T08:40:29;14.90;99.90
17178;DHT22;8704;52.006;4.374;2023-05-29T08:42:59;14.90;99.90
17178;DHT22;8704;52.006;4.374;2023-05-29T08:45:29;14.90;99.90
17178;DHT22;8704;52.006;4.374;2023-05-29T08:47:58;14.90;99.90
17178;DHT22;8704;52.006;4.374;2023-05-29T08:50:28;14.90;99.90
17178;DHT22;8704;52.006;4.374;2023-05-29T08:52:56;15.00;99.90
17178;DHT22;8704;52.006;4.374;2023-05-29T08:55:24;15.00;99.90
17178;DHT22;8704;52.006;4.374;2023-05-29T08:57:54;15.10;99.90
17178;DHT22;8704;52.006;4.374;2023-05-29T09:00:23;15.20;99.90
17178;DHT22;8704;52.006;4.374;2023-05-29T09:02:55;15.30;99.90
17178;DHT22;8704;52.006;4.374;2023-05-29T09:05:23;15.40;99.90
17178;DHT22;8704;52.006;4.374;2023-05-29T09:07:55;15.50;99.90
17178;DHT22;8704;52.006;4.374;2023-05-29T09:10:23;15.40;99.90
17178;DHT22;8704;52.006;4.374;2023-05-29T09:12:53;15.50;99.90
17178;DHT22;8704;52.006;4.374;2023-05-29T09:15:23;15.60;99.90
17178;DHT22;8704;52.006;4.374;2023-05-29T09:17:52;15.60;99.90
17178;DHT22;8704;52.006;4.374;2023-05-29T09:20:21;15.70;99.90
17178;DHT22;8704;52.006;4.374;2023-05-29T09:22:55;15.80;99.90
17178;DHT22;8704;52.006;4.374;2023-05-29T09:25:24;15.80;99.90
17178;DHT22;8704;52.006;4.374;2023-05-29T09:27:58;15.90;99.90
17178;DHT22;8704;52.006;4.374;2023-05-29T09:30:37;15.90;99.90
17178;DHT22;8704;52.006;4.374;2023-05-29T09:33:07;16.00;99.90
17178;DHT22;8704;52.006;4.374;2023-05-29T09:35:38;16.10;99.90
17178;DHT22;8704;52.006;4.374;2023-05-29T09:38:07;16.20;99.90
17178;DHT22;8704;52.006;4.374;2023-05-29T09:40:37;16.30;99.90
17178;DHT22;8704;52.006;4.374;2023-05-29T09:43:10;16.30;99.90
17178;DHT22;8704;52.006;4.374;2023-05-29T09:45:39;16.40;99.90
17178;DHT22;8704;52.006;4.374;2023-05-29T09:48:07;16.50;99.90
17178;DHT22;8704;52.006;4.374;2023-05-29T09:50:36;16.40;99.90
17178;DHT22;8704;52.006;4.374;2023-05-29T09:53:16;16.50;99.90
17178;DHT22;8704;52.006;4.374;2023-05-29T09:55:46;16.70;99.90
17178;DHT22;8704;52.006;4.374;2023-05-29T09:58:17;16.70;99.90
17178;DHT22;8704;52.006;4.374;2023-05-29T10:00:45;16.80;99.90
17178;DHT22;8704;52.006;4.374;2023-05-29T10:03:14;16.90;99.90
17178;DHT22;8704;52.006;4.374;2023-05-29T10:05:45;17.00;99.90
17178;DHT22;8704;52.006;4.374;2023-05-29T10:08:17;17.00;99.90
17178;DHT22;8704;52.006;4.374;2023-05-29T10:10:46;17.10;99.90
17178;DHT22;8704;52.006;4.374;2023-05-29T10:13:17;17.20;99.90
17178;DHT22;8704;52.006;4.374;2023-05-29T10:15:46;17.30;99.90
17178;DHT22;8704;52.006;4.374;2023-05-29T10:18:21;17.40;99.90
17178;DHT22;8704;52.006;4.374;2023-05-29T10:20:53;17.40;99.90
17178;DHT22;8704;52.006;4.374;2023-05-29T10:23:25;17.60;99.90
17178;DHT22;8704;52.006;4.374;2023-05-29T10:28:46;17.90;99.90
17178;DHT22;8704;52.006;4.374;2023-05-29T10:31:19;17.90;99.90
17178;DHT22;8704;52.006;4.374;2023-05-29T10:34:01;18.10;99.90
17178;DHT22;8704;52.006;4.374;2023-05-29T10:36:35;18.20;99.90
17178;DHT22;8704;52.006;4.374;2023-05-29T10:39:05;18.40;99.90
17178;DHT22;8704;52.006;4.374;2023-05-29T10:41:34;18.50;99.90
17178;DHT22;8704;52.006;4.374;2023-05-29T10:44:40;18.50;99.90
17178;DHT22;8704;52.006;4.374;2023-05-29T10:47:08;18.50;99.90
17178;DHT22;8704;52.006;4.374;2023-05-29T10:49:39;18.70;99.90
17178;DHT22;8704;52.006;4.374;2023-05-29T10:52:18;18.90;99.90
17178;DHT22;8704;52.006;4.374;2023-05-29T10:54:52;18.90;99.90
17178;DHT22;8704;52.006;4.374;2023-05-29T10:57:21;18.90;98.10
17178;DHT22;8704;52.006;4.374;2023-05-29T10:59:59;18.90;99.20
17178;DHT22;8704;52.006;4.374;2023-05-29T11:02:30;19.00;99.90
17178;DHT22;8704;52.006;4.374;2023-05-29T11:05:05;19.20;99.00
17178;DHT22;8704;52.006;4.374;2023-05-29T11:07:34;19.30;99.90
17178;DHT22;8704;52.006;4.374;2023-05-29T11:10:12;19.40;99.90
17178;DHT22;8704;52.006;4.374;2023-05-29T11:12:57;19.40;99.90
17178;DHT22;8704;52.006;4.374;2023-05-29T11:15:27;19.70;99.90
17178;DHT22;8704;52.006;4.374;2023-05-29T11:18:05;19.90;99.90
17178;DHT22;8704;52.006;4.374;2023-05-29T11:20:36;20.00;99.90
17178;DHT22;8704;52.006;4.374;2023-05-29T11:23:05;20.10;99.90
17178;DHT22;8704;52.006;4.374;2023-05-29T11:25:37;20.20;99.90
17178;DHT22;8704;52.006;4.374;2023-05-29T11:28:05;20.10;99.90
17178;DHT22;8704;52.006;4.374;2023-05-29T11:30:43;20.30;99.90
17178;DHT22;8704;52.006;4.374;2023-05-29T11:33:19;20.50;99.90
17178;DHT22;8704;52.006;4.374;2023-05-29T11:35:57;20.60;99.90
17178;DHT22;8704;52.006;4.374;2023-05-29T11:38:25;20.60;99.60
17178;DHT22;8704;52.006;4.374;2023-05-29T11:40:54;20.70;99.90
17178;DHT22;8704;52.006;4.374;2023-05-29T11:43:22;20.60;99.90
17178;DHT22;8704;52.006;4.374;2023-05-29T11:45:52;20.80;99.90
17178;DHT22;8704;52.006;4.374;2023-05-29T11:48:20;20.90;99.90
17178;DHT22;8704;52.006;4.374;2023-05-29T11:50:50;21.30;99.90
17178;DHT22;8704;52.006;4.374;2023-05-29T11:53:19;21.30;99.90
17178;DHT22;8704;52.006;4.374;2023-05-29T11:55:47;21.20;99.90
17178;DHT22;8704;52.006;4.374;2023-05-29T11:58:15;21.00;99.90
17178;DHT22;8704;52.006;4.374;2023-05-29T12:00:44;21.30;99.90
17178;DHT22;8704;52.006;4.374;2023-05-29T12:03:15;21.40;99.90
17178;DHT22;8704;52.006;4.374;2023-05-29T12:05:45;21.60;99.90
17178;DHT22;8704;52.006;4.374;2023-05-29T12:08:13;21.80;99.90
17178;DHT22;8704;52.006;4.374;2023-05-29T12:10:46;22.10;99.90
17178;DHT22;8704;52.006;4.374;2023-05-29T12:13:15;22.10;99.90
17178;DHT22;8704;52.006;4.374;2023-05-29T12:15:45;22.20;99.90
17178;DHT22;8704;52.006;4.374;2023-05-29T12:18:16;22.30;99.90
17178;DHT22;8704;52.006;4.374;2023-05-29T12:20:45;22.50;99.90
17178;DHT22;8704;52.006;4.374;2023-05-29T12:23:13;22.70;99.90
17178;DHT22;8704;52.006;4.374;2023-05-29T12:25:45;22.50;99.90
17178;DHT22;8704;52.006;4.374;2023-05-29T12:28:16;22.60;99.90
17178;DHT22;8704;52.006;4.374;2023-05-29T12:30:47;22.70;99.90
17178;DHT22;8704;52.006;4.374;2023-05-29T12:33:28;22.80;99.90
17178;DHT22;8704;52.006;4.374;2023-05-29T12:36:04;22.70;99.90
17178;DHT22;8704;52.006;4.374;2023-05-29T12:38:41;22.70;99.90
17178;DHT22;8704;52.006;4.374;2023-05-29T12:41:25;22.60;99.90
17178;DHT22;8704;52.006;4.374;2023-05-29T12:43:54;22.50;99.90
17178;DHT22;8704;52.006;4.374;2023-05-29T12:46:24;22.50;99.90
17178;DHT22;8704;52.006;4.374;2023-05-29T12:48:55;22.40;99.90
17178;DHT22;8704;52.006;4.374;2023-05-29T12:51:23;22.50;99.90
17178;DHT22;8704;52.006;4.374;2023-05-29T12:53:52;22.30;99.90
17178;DHT22;8704;52.006;4.374;2023-05-29T12:56:22;22.20;99.90
17178;DHT22;8704;52.006;4.374;2023-05-29T12:58:50;22.40;99.90
17178;DHT22;8704;52.006;4.374;2023-05-29T13:01:19;22.50;99.90
17178;DHT22;8704;52.006;4.374;2023-05-29T13:03:49;22.10;99.90
17178;DHT22;8704;52.006;4.374;2023-05-29T13:06:18;22.20;99.90
17178;DHT22;8704;52.006;4.374;2023-05-29T13:08:46;22.40;99.90
17178;DHT22;8704;52.006;4.374;2023-05-29T13:11:14;22.50;99.90
17178;DHT22;8704;52.006;4.374;2023-05-29T13:13:42;22.70;99.90
17178;DHT22;8704;52.006;4.374;2023-05-29T13:16:10;22.90;99.90
17178;DHT22;8704;52.006;4.374;2023-05-29T13:18:38;22.90;99.90
17178;DHT22;8704;52.006;4.374;2023-05-29T13:21:06;22.80;99.90
17178;DHT22;8704;52.006;4.374;2023-05-29T13:23:36;23.00;99.90
17178;DHT22;8704;52.006;4.374;2023-05-29T13:26:04;23.00;99.90
17178;DHT22;8704;52.006;4.374;2023-05-29T13:28:33;23.20;99.90
17178;DHT22;8704;52.006;4.374;2023-05-29T13:31:01;23.50;99.90
17178;DHT22;8704;52.006;4.374;2023-05-29T13:33:29;23.50;99.90
17178;DHT22;8704;52.006;4.374;2023-05-29T13:35:57;23.60;99.90
17178;DHT22;8704;52.006;4.374;2023-05-29T13:38:26;23.50;99.90
17178;DHT22;8704;52.006;4.374;2023-05-29T13:40:55;23.60;99.90
17178;DHT22;8704;52.006;4.374;2023-05-29T13:43:23;23.80;99.90
17178;DHT22;8704;52.006;4.374;2023-05-29T13:46:08;23.90;99.90
17178;DHT22;8704;52.006;4.374;2023-05-29T13:48:36;24.30;99.90
17178;DHT22;8704;52.006;4.374;2023-05-29T13:51:04;24.10;99.90
17178;DHT22;8704;52.006;4.374;2023-05-29T13:53:32;24.50;99.90
17178;DHT22;8704;52.006;4.374;2023-05-29T13:56:02;24.80;99.90
17178;DHT22;8704;52.006;4.374;2023-05-29T13:58:30;24.80;99.90
17178;DHT22;8704;52.006;4.374;2023-05-29T14:00:58;24.90;99.90
17178;DHT22;8704;52.006;4.374;2023-05-29T14:03:26;24.70;99.90
17178;DHT22;8704;52.006;4.374;2023-05-29T14:05:56;24.50;99.90
17178;DHT22;8704;52.006;4.374;2023-05-29T14:08:24;24.90;99.90
17178;DHT22;8704;52.006;4.374;2023-05-29T14:10:52;25.20;99.90
17178;DHT22;8704;52.006;4.374;2023-05-29T14:13:22;25.10;99.90
17178;DHT22;8704;52.006;4.374;2023-05-29T14:15:50;25.40;99.90
17178;DHT22;8704;52.006;4.374;2023-05-29T14:18:18;25.70;99.90
17178;DHT22;8704;52.006;4.374;2023-05-29T14:20:47;25.90;99.90
17178;DHT22;8704;52.006;4.374;2023-05-29T14:23:16;25.80;99.90
17178;DHT22;8704;52.006;4.374;2023-05-29T14:25:44;25.80;99.90
17178;DHT22;8704;52.006;4.374;2023-05-29T14:28:12;26.20;99.90
17178;DHT22;8704;52.006;4.374;2023-05-29T14:30:42;26.30;99.90
17178;DHT22;8704;52.006;4.374;2023-05-29T14:33:10;26.20;99.90
17178;DHT22;8704;52.006;4.374;2023-05-29T14:35:38;26.20;99.90
17178;DHT22;8704;52.006;4.374;2023-05-29T14:38:06;26.50;99.90
17178;DHT22;8704;52.006;4.374;2023-05-29T14:40:34;26.60;99.90
17178;DHT22;8704;52.006;4.374;2023-05-29T14:43:04;26.90;99.90
17178;DHT22;8704;52.006;4.374;2023-05-29T14:45:32;26.70;99.90
17178;DHT22;8704;52.006;4.374;2023-05-29T14:48:01;27.00;99.90
17178;DHT22;8704;52.006;4.374;2023-05-29T14:50:31;27.00;99.90
17178;DHT22;8704;52.006;4.374;2023-05-29T14:53:03;27.20;99.90
17178;DHT22;8704;52.006;4.374;2023-05-29T14:55:31;27.20;99.90
17178;DHT22;8704;52.006;4.374;2023-05-29T14:58:04;27.50;99.90
17178;DHT22;8704;52.006;4.374;2023-05-29T15:00:32;27.40;99.90
17178;DHT22;8704;52.006;4.374;2023-05-29T15:03:02;27.50;99.90
17178;DHT22;8704;52.006;4.374;2023-05-29T15:05:30;27.30;99.90
17178;DHT22;8704;52.006;4.374;2023-05-29T15:07:59;27.00;99.90
17178;DHT22;8704;52.006;4.374;2023-05-29T15:10:27;27.70;99.90
17178;DHT22;8704;52.006;4.374;2023-05-29T15:12:55;27.80;99.90
17178;DHT22;8704;52.006;4.374;2023-05-29T15:15:25;27.80;99.90
17178;DHT22;8704;52.006;4.374;2023-05-29T15:18:14;27.70;99.90
17178;DHT22;8704;52.006;4.374;2023-05-29T15:20:42;27.50;99.90
17178;DHT22;8704;52.006;4.374;2023-05-29T15:23:10;27.60;99.90
17178;DHT22;8704;52.006;4.374;2023-05-29T15:25:38;27.70;99.90
17178;DHT22;8704;52.006;4.374;2023-05-29T15:28:06;27.60;99.90
17178;DHT22;8704;52.006;4.374;2023-05-29T15:30:34;27.60;99.90
17178;DHT22;8704;52.006;4.374;2023-05-29T15:33:03;28.00;99.90
17178;DHT22;8704;52.006;4.374;2023-05-29T15:35:36;28.20;99.90
17178;DHT22;8704;52.006;4.374;2023-05-29T15:38:04;27.80;99.90
17178;DHT22;8704;52.006;4.374;2023-05-29T15:40:32;27.90;99.90
17178;DHT22;8704;52.006;4.374;2023-05-29T15:43:01;27.70;99.90
17178;DHT22;8704;52.006;4.374;2023-05-29T15:45:30;27.70;99.90
17178;DHT22;8704;52.006;4.374;2023-05-29T15:47:58;27.80;99.90
17178;DHT22;8704;52.006;4.374;2023-05-29T15:50:26;27.90;99.90
17178;DHT22;8704;52.006;4.374;2023-05-29T15:52:56;28.30;99.90
17178;DHT22;8704;52.006;4.374;2023-05-29T15:55:24;28.20;99.90
17178;DHT22;8704;52.006;4.374;2023-05-29T15:57:52;28.30;99.90
17178;DHT22;8704;52.006;4.374;2023-05-29T16:00:20;28.00;99.90
17178;DHT22;8704;52.006;4.374;2023-05-29T16:02:48;27.90;99.90
17178;DHT22;8704;52.006;4.374;2023-05-29T16:05:17;28.00;99.90